sensor_id;sensor_type;location;lat;lon;timestamp;temperature;humidity
20233;DHT22;37438;55.674;13.074;2023-04-15T00:02:03;8.90;99.90
20233;DHT22;37438;55.674;13.074;2023-04-15T00:05:16;8.80;99.90
20233;DHT22;37438;55.674;13.074;2023-04-15T00:08:20;8.90;99.90
20233;DHT22;37438;55.674;13.074;2023-04-15T00:11:24;8.80;99.90
20233;DHT22;37438;55.674;13.074;2023-04-15T00:14:29;8.80;99.90
20233;DHT22;37438;55.674;13.074;2023-04-15T00:17:34;8.80;99.90
20233;DHT22;37438;55.674;13.074;2023-04-15T00:20:38;8.70;99.90
20233;DHT22;37438;55.674;13.074;2023-04-15T00:23:42;8.70;99.90
20233;DHT22;37438;55.674;13.074;2023-04-15T00:26:47;8.70;99.90
20233;DHT22;37438;55.674;13.074;2023-04-15T00:29:52;8.70;99.90
20233;DHT22;37438;55.674;13.074;2023-04-15T00:32:56;8.70;99.90
20233;DHT22;37438;55.674;13.074;2023-04-15T00:36:01;8.70;99.90
20233;DHT22;37438;55.674;13.074;2023-04-15T00:39:06;8.70;99.90
20233;DHT22;37438;55.674;13.074;2023-04-15T00:42:12;8.60;99.90
20233;DHT22;37438;55.674;13.074;2023-04-15T00:45:16;8.70;99.90
20233;DHT22;37438;55.674;13.074;2023-04-15T00:48:20;8.70;99.90
20233;DHT22;37438;55.674;13.074;2023-04-15T00:51:26;8.70;99.90
20233;DHT22;37438;55.674;13.074;2023-04-15T00:54:30;8.70;99.90
20233;DHT22;37438;55.674;13.074;2023-04-15T00:57:35;8.70;99.90
20233;DHT22;37438;55.674;13.074;2023-04-15T01:00:39;8.70;99.90
20233;DHT22;37438;55.674;13.074;2023-04-15T01:03:44;8.70;99.90
20233;DHT22;37438;55.674;13.074;2023-04-15T01:06:49;8.70;99.90
20233;DHT22;37438;55.674;13.074;2023-04-15T01:09:53;8.60;99.90
20233;DHT22;37438;55.674;13.074;2023-04-15T01:12:57;8.70;99.90
20233;DHT22;37438;55.674;13.074;2023-04-15T01:16:02;8.70;99.90
20233;DHT22;37438;55.674;13.074;2023-04-15T01:19:07;8.60;99.90
20233;DHT22;37438;55.674;13.074;2023-04-15T01:22:12;8.60;99.90
20233;DHT22;37438;55.674;13.074;2023-04-15T01:25:18;8.70;99.90
20233;DHT22;37438;55.674;13.074;2023-04-15T01:28:23;8.60;99.90
20233;DHT22;37438;55.674;13.074;2023-04-15T01:31:28;8.60;99.90
20233;DHT22;37438;55.674;13.074;2023-04-15T01:34:33;8.60;99.90
20233;DHT22;37438;55.674;13.074;2023-04-15T01:37:38;8.60;99.90
20233;DHT22;37438;55.674;13.074;2023-04-15T01:40:43;8.60;99.90
20233;DHT22;37438;55.674;13.074;2023-04-15T01:43:48;8.60;99.90
20233;DHT22;37438;55.674;13.074;2023-04-15T01:46:52;8.60;99.90
20233;DHT22;37438;55.674;13.074;2023-04-15T01:49:58;8.60;99.90
20233;DHT22;37438;55.674;13.074;2023-04-15T01:53:02;8.60;99.90
20233;DHT22;37438;55.674;13.074;2023-04-15T01:56:06;8.60;99.90
20233;DHT22;37438;55.674;13.074;2023-04-15T01:59:11;8.60;99.90
20233;DHT22;37438;55.674;13.074;2023-04-15T02:02:16;8.50;99.90
20233;DHT22;37438;55.674;13.074;2023-04-15T02:05:21;8.50;99.90
20233;DHT22;37438;55.674;13.074;2023-04-15T02:08:25;8.50;99.90
20233;DHT22;37438;55.674;13.074;2023-04-15T02:11:30;8.50;99.90
20233;DHT22;37438;55.674;13.074;2023-04-15T02:14:34;8.50;99.90
20233;DHT22;37438;55.674;13.074;2023-04-15T02:17:39;8.40;99.90
20233;DHT22;37438;55.674;13.074;2023-04-15T02:20:44;8.40;99.90
20233;DHT22;37438;55.674;13.074;2023-04-15T02:23:50;8.40;99.90
20233;DHT22;37438;55.674;13.074;2023-04-15T02:26:57;8.30;99.90
20233;DHT22;37438;55.674;13.074;2023-04-15T02:30:02;8.30;99.90
20233;DHT22;37438;55.674;13.074;2023-04-15T02:33:06;8.30;99.90
20233;DHT22;37438;55.674;13.074;2023-04-15T02:36:11;8.30;99.90
20233;DHT22;37438;55.674;13.074;2023-04-15T02:39:15;8.20;99.90
20233;DHT22;37438;55.674;13.074;2023-04-15T02:42:21;8.20;99.90
20233;DHT22;37438;55.674;13.074;2023-04-15T02:45:26;8.10;99.90
20233;DHT22;37438;55.674;13.074;2023-04-15T02:48:31;8.10;99.90
20233;DHT22;37438;55.674;13.074;2023-04-15T02:51:35;8.20;99.90
20233;DHT22;37438;55.674;13.074;2023-04-15T02:54:39;8.20;99.90
20233;DHT22;37438;55.674;13.074;2023-04-15T02:57:43;8.20;99.90
20233;DHT22;37438;55.674;13.074;2023-04-15T03:00:48;8.30;99.90
20233;DHT22;37438;55.674;13.074;2023-04-15T03:03:53;8.30;99.90
20233;DHT22;37438;55.674;13.074;2023-04-15T03:06:58;8.40;99.90
20233;DHT22;37438;55.674;13.074;2023-04-15T03:10:03;8.30;99.90
20233;DHT22;37438;55.674;13.074;2023-04-15T03:13:08;8.40;99.90
20233;DHT22;37438;55.674;13.074;2023-04-15T03:16:14;8.40;99.90
20233;DHT22;37438;55.674;13.074;2023-04-15T03:19:19;8.40;99.90
20233;DHT22;37438;55.674;13.074;2023-04-15T03:22:24;8.40;99.90
20233;DHT22;37438;55.674;13.074;2023-04-15T03:25:30;8.40;99.90
20233;DHT22;37438;55.674;13.074;2023-04-15T03:28:36;8.50;99.90
20233;DHT22;37438;55.674;13.074;2023-04-15T03:31:42;8.40;99.90
20233;DHT22;37438;55.674;13.074;2023-04-15T03:34:47;8.40;99.90
20233;DHT22;37438;55.674;13.074;2023-04-15T03:37:52;8.50;99.90
20233;DHT22;37438;55.674;13.074;2023-04-15T03:40:56;8.40;99.90
20233;DHT22;37438;55.674;13.074;2023-04-15T03:44:01;8.40;99.90
20233;DHT22;37438;55.674;13.074;2023-04-15T03:47:05;8.40;99.90
20233;DHT22;37438;55.674;13.074;2023-04-15T03:50:09;8.40;99.90
20233;DHT22;37438;55.674;13.074;2023-04-15T03:53:14;8.40;99.90
20233;DHT22;37438;55.674;13.074;2023-04-15T03:56:18;8.40;99.90
20233;DHT22;37438;55.674;13.074;2023-04-15T03:59:23;8.40;99.90
20233;DHT22;37438;55.674;13.074;2023-04-15T04:02:27;8.30;99.90
20233;DHT22;37438;55.674;13.074;2023-04-15T04:05:31;8.40;99.90
20233;DHT22;37438;55.674;13.074;2023-04-15T04:08:36;8.30;99.90
20233;DHT22;37438;55.674;13.074;2023-04-15T04:11:40;8.30;99.90
20233;DHT22;37438;55.674;13.074;2023-04-15T04:14:44;8.30;99.90
20233;DHT22;37438;55.674;13.074;2023-04-15T04:17:49;8.30;99.90
20233;DHT22;37438;55.674;13.074;2023-04-15T04:20:53;8.30;99.90
20233;DHT22;37438;55.674;13.074;2023-04-15T04:23:58;8.30;99.90
20233;DHT22;37438;55.674;13.074;2023-04-15T04:27:04;8.40;99.90
20233;DHT22;37438;55.674;13.074;2023-04-15T04:30:08;8.40;99.90
20233;DHT22;37438;55.674;13.074;2023-04-15T04:33:13;8.40;99.90
20233;DHT22;37438;55.674;13.074;2023-04-15T04:36:17;8.40;99.90
20233;DHT22;37438;55.674;13.074;2023-04-15T04:39:21;8.50;99.90
20233;DHT22;37438;55.674;13.074;2023-04-15T04:42:26;8.50;99.90
20233;DHT22;37438;55.674;13.074;2023-04-15T04:45:30;8.50;99.90
20233;DHT22;37438;55.674;13.074;2023-04-15T04:48:34;8.50;99.90
20233;DHT22;37438;55.674;13.074;2023-04-15T04:51:39;8.60;99.90
20233;DHT22;37438;55.674;13.074;2023-04-15T04:54:43;8.60;99.90
20233;DHT22;37438;55.674;13.074;2023-04-15T04:57:48;8.70;99.90
20233;DHT22;37438;55.674;13.074;2023-04-15T05:00:52;8.70;99.90
20233;DHT22;37438;55.674;13.074;2023-04-15T05:03:57;8.80;99.90
20233;DHT22;37438;55.674;13.074;2023-04-15T05:07:01;8.80;99.90
20233;DHT22;37438;55.674;13.074;2023-04-15T05:10:05;8.80;99.90
20233;DHT22;37438;55.674;13.074;2023-04-15T05:13:10;8.80;99.90
20233;DHT22;37438;55.674;13.074;2023-04-15T05:16:15;8.90;99.90
20233;DHT22;37438;55.674;13.074;2023-04-15T05:19:20;8.90;99.90
20233;DHT22;37438;55.674;13.074;2023-04-15T05:22:24;9.00;99.90
20233;DHT22;37438;55.674;13.074;2023-04-15T05:25:29;9.00;99.90
20233;DHT22;37438;55.674;13.074;2023-04-15T05:28:34;9.20;99.90
20233;DHT22;37438;55.674;13.074;2023-04-15T05:31:38;9.30;99.90
20233;DHT22;37438;55.674;13.074;2023-04-15T05:34:43;9.50;99.90
20233;DHT22;37438;55.674;13.074;2023-04-15T05:37:47;9.50;99.90
20233;DHT22;37438;55.674;13.074;2023-04-15T05:40:52;9.50;99.90
20233;DHT22;37438;55.674;13.074;2023-04-15T05:43:56;9.60;99.90
20233;DHT22;37438;55.674;13.074;2023-04-15T05:47:00;9.60;99.90
20233;DHT22;37438;55.674;13.074;2023-04-15T05:50:06;9.70;99.90
20233;DHT22;37438;55.674;13.074;2023-04-15T05:53:11;9.70;99.90
20233;DHT22;37438;55.674;13.074;2023-04-15T05:56:15;9.80;99.90
20233;DHT22;37438;55.674;13.074;2023-04-15T05:59:20;9.80;99.90
20233;DHT22;37438;55.674;13.074;2023-04-15T06:02:25;9.90;41.60
20233;DHT22;37438;55.674;13.074;2023-04-15T06:05:29;9.90;58.00
20233;DHT22;37438;55.674;13.074;2023-04-15T06:08:34;10.00;1.00
20233;DHT22;37438;55.674;13.074;2023-04-15T06:11:38;10.20;99.90
20233;DHT22;37438;55.674;13.074;2023-04-15T06:14:44;10.30;99.90
20233;DHT22;37438;55.674;13.074;2023-04-15T06:17:48;10.40;35.50
20233;DHT22;37438;55.674;13.074;2023-04-15T06:20:53;10.30;1.00
20233;DHT22;37438;55.674;13.074;2023-04-15T06:23:58;10.50;99.90
20233;DHT22;37438;55.674;13.074;2023-04-15T06:27:03;10.40;99.90
20233;DHT22;37438;55.674;13.074;2023-04-15T06:30:07;10.50;99.90
20233;DHT22;37438;55.674;13.074;2023-04-15T06:33:12;10.50;68.40
20233;DHT22;37438;55.674;13.074;2023-04-15T06:36:16;10.90;99.90
20233;DHT22;37438;55.674;13.074;2023-04-15T06:39:21;10.80;99.90
20233;DHT22;37438;55.674;13.074;2023-04-15T06:42:25;10.70;99.90
20233;DHT22;37438;55.674;13.074;2023-04-15T06:45:30;10.40;99.90
20233;DHT22;37438;55.674;13.074;2023-04-15T06:48:35;10.70;1.00
20233;DHT22;37438;55.674;13.074;2023-04-15T06:51:41;10.70;99.90
20233;DHT22;37438;55.674;13.074;2023-04-15T06:54:45;10.50;99.90
20233;DHT22;37438;55.674;13.074;2023-04-15T06:57:50;10.50;99.90
20233;DHT22;37438;55.674;13.074;2023-04-15T07:00:55;10.60;99.90
20233;DHT22;37438;55.674;13.074;2023-04-15T07:03:59;10.40;99.90
20233;DHT22;37438;55.674;13.074;2023-04-15T07:07:04;10.90;93.60
20233;DHT22;37438;55.674;13.074;2023-04-15T07:10:08;11.10;99.90
20233;DHT22;37438;55.674;13.074;2023-04-15T07:13:15;11.30;23.50
20233;DHT22;37438;55.674;13.074;2023-04-15T07:16:19;11.90;99.90
20233;DHT22;37438;55.674;13.074;2023-04-15T07:19:24;12.10;1.00
20233;DHT22;37438;55.674;13.074;2023-04-15T07:22:29;12.50;99.90
20233;DHT22;37438;55.674;13.074;2023-04-15T07:25:33;12.20;99.90
20233;DHT22;37438;55.674;13.074;2023-04-15T07:28:39;12.30;99.90
20233;DHT22;37438;55.674;13.074;2023-04-15T07:31:44;12.60;2.60
20233;DHT22;37438;55.674;13.074;2023-04-15T07:34:49;13.10;99.90
20233;DHT22;37438;55.674;13.074;2023-04-15T07:37:54;13.40;99.90
20233;DHT22;37438;55.674;13.074;2023-04-15T07:40:58;13.60;51.20
20233;DHT22;37438;55.674;13.074;2023-04-15T07:44:03;13.10;99.90
20233;DHT22;37438;55.674;13.074;2023-04-15T07:47:08;13.20;37.40
20233;DHT22;37438;55.674;13.074;2023-04-15T07:50:12;13.20;13.50
20233;DHT22;37438;55.674;13.074;2023-04-15T07:53:17;13.40;1.00
20233;DHT22;37438;55.674;13.074;2023-04-15T07:56:22;13.20;99.90
20233;DHT22;37438;55.674;13.074;2023-04-15T07:59:26;13.30;1.00
20233;DHT22;37438;55.674;13.074;2023-04-15T08:02:33;13.60;99.90
20233;DHT22;37438;55.674;13.074;2023-04-15T08:05:39;13.10;99.90
20233;DHT22;37438;55.674;13.074;2023-04-15T08:08:43;13.80;99.90
20233;DHT22;37438;55.674;13.074;2023-04-15T08:11:48;13.40;99.90
20233;DHT22;37438;55.674;13.074;2023-04-15T08:14:53;14.30;99.90
20233;DHT22;37438;55.674;13.074;2023-04-15T08:17:58;13.90;36.80
20233;DHT22;37438;55.674;13.074;2023-04-15T08:21:04;14.50;1.00
20233;DHT22;37438;55.674;13.074;2023-04-15T08:24:08;14.40;99.90
20233;DHT22;37438;55.674;13.074;2023-04-15T08:27:14;14.60;99.90
20233;DHT22;37438;55.674;13.074;2023-04-15T08:30:18;14.30;99.90
20233;DHT22;37438;55.674;13.074;2023-04-15T08:33:22;14.70;44.80
20233;DHT22;37438;55.674;13.074;2023-04-15T08:36:27;14.10;51.20
20233;DHT22;37438;55.674;13.074;2023-04-15T08:39:32;14.80;1.00
20233;DHT22;37438;55.674;13.074;2023-04-15T08:42:37;15.50;99.90
20233;DHT22;37438;55.674;13.074;2023-04-15T08:45:46;15.00;99.90
20233;DHT22;37438;55.674;13.074;2023-04-15T08:48:52;15.40;99.90
20233;DHT22;37438;55.674;13.074;2023-04-15T08:51:59;15.70;99.90
20233;DHT22;37438;55.674;13.074;2023-04-15T08:55:05;15.90;99.90
20233;DHT22;37438;55.674;13.074;2023-04-15T08:58:11;16.10;99.90
20233;DHT22;37438;55.674;13.074;2023-04-15T09:01:16;15.90;99.90
20233;DHT22;37438;55.674;13.074;2023-04-15T09:04:20;15.90;72.40
20233;DHT22;37438;55.674;13.074;2023-04-15T09:07:25;15.30;99.90
20233;DHT22;37438;55.674;13.074;2023-04-15T09:10:30;16.00;99.90
20233;DHT22;37438;55.674;13.074;2023-04-15T09:13:34;15.60;99.90
20233;DHT22;37438;55.674;13.074;2023-04-15T09:20:09;16.40;1.30
20233;DHT22;37438;55.674;13.074;2023-04-15T09:23:13;15.90;28.80
20233;DHT22;37438;55.674;13.074;2023-04-15T09:26:18;15.70;1.00
20233;DHT22;37438;55.674;13.074;2023-04-15T09:29:23;16.30;1.00
20233;DHT22;37438;55.674;13.074;2023-04-15T09:32:28;16.40;1.00
20233;DHT22;37438;55.674;13.074;2023-04-15T09:35:32;16.20;1.00
20233;DHT22;37438;55.674;13.074;2023-04-15T09:38:45;16.20;1.00
20233;DHT22;37438;55.674;13.074;2023-04-15T09:42:06;16.20;99.90
20233;DHT22;37438;55.674;13.074;2023-04-15T09:45:11;16.50;99.90
20233;DHT22;37438;55.674;13.074;2023-04-15T09:48:19;16.70;99.90
20233;DHT22;37438;55.674;13.074;2023-04-15T09:51:32;16.40;99.90
20233;DHT22;37438;55.674;13.074;2023-04-15T09:54:36;16.30;99.90
20233;DHT22;37438;55.674;13.074;2023-04-15T09:57:41;16.00;99.90
20233;DHT22;37438;55.674;13.074;2023-04-15T10:00:47;16.20;99.90
20233;DHT22;37438;55.674;13.074;2023-04-15T10:03:52;16.20;99.90
20233;DHT22;37438;55.674;13.074;2023-04-15T10:06:57;15.90;99.90
20233;DHT22;37438;55.674;13.074;2023-04-15T10:10:02;15.80;99.90
20233;DHT22;37438;55.674;13.074;2023-04-15T10:13:08;16.10;99.90
20233;DHT22;37438;55.674;13.074;2023-04-15T10:16:14;15.70;99.90
20233;DHT22;37438;55.674;13.074;2023-04-15T10:19:19;15.20;99.90
20233;DHT22;37438;55.674;13.074;2023-04-15T10:22:26;15.20;99.90
20233;DHT22;37438;55.674;13.074;2023-04-15T10:25:30;14.80;99.90
20233;DHT22;37438;55.674;13.074;2023-04-15T10:28:37;14.90;1.00
20233;DHT22;37438;55.674;13.074;2023-04-15T10:31:41;15.20;1.00
20233;DHT22;37438;55.674;13.074;2023-04-15T10:34:47;15.70;99.90
20233;DHT22;37438;55.674;13.074;2023-04-15T10:37:52;15.70;99.90
20233;DHT22;37438;55.674;13.074;2023-04-15T10:44:17;16.20;99.90
20233;DHT22;37438;55.674;13.074;2023-04-15T10:47:20;16.00;99.90
20233;DHT22;37438;55.674;13.074;2023-04-15T10:50:25;16.10;99.90
20233;DHT22;37438;55.674;13.074;2023-04-15T10:53:30;15.80;99.90
20233;DHT22;37438;55.674;13.074;2023-04-15T10:56:35;16.00;99.90
20233;DHT22;37438;55.674;13.074;2023-04-15T10:59:59;16.00;99.90
20233;DHT22;37438;55.674;13.074;2023-04-15T11:03:04;16.10;99.90
20233;DHT22;37438;55.674;13.074;2023-04-15T11:06:09;16.10;99.90
20233;DHT22;37438;55.674;13.074;2023-04-15T11:09:30;15.90;99.90
20233;DHT22;37438;55.674;13.074;2023-04-15T11:12:35;15.30;99.90
20233;DHT22;37438;55.674;13.074;2023-04-15T11:15:41;15.60;99.90
20233;DHT22;37438;55.674;13.074;2023-04-15T11:18:52;15.40;99.90
20233;DHT22;37438;55.674;13.074;2023-04-15T11:22:04;14.80;99.90
20233;DHT22;37438;55.674;13.074;2023-04-15T11:25:09;16.20;99.90
20233;DHT22;37438;55.674;13.074;2023-04-15T11:28:13;15.90;99.90
20233;DHT22;37438;55.674;13.074;2023-04-15T11:31:17;15.70;99.90
20233;DHT22;37438;55.674;13.074;2023-04-15T11:34:23;14.80;99.90
20233;DHT22;37438;55.674;13.074;2023-04-15T11:37:28;15.30;99.90
20233;DHT22;37438;55.674;13.074;2023-04-15T11:40:32;15.40;99.90
20233;DHT22;37438;55.674;13.074;2023-04-15T11:43:38;15.40;99.90
20233;DHT22;37438;55.674;13.074;2023-04-15T11:46:43;16.00;99.90
20233;DHT22;37438;55.674;13.074;2023-04-15T11:49:48;15.20;99.90
20233;DHT22;37438;55.674;13.074;2023-04-15T11:52:56;15.00;99.90
20233;DHT22;37438;55.674;13.074;2023-04-15T11:56:01;14.90;99.90
20233;DHT22;37438;55.674;13.074;2023-04-15T11:59:05;14.50;99.90
20233;DHT22;37438;55.674;13.074;2023-04-15T12:02:11;14.00;99.90
20233;DHT22;37438;55.674;13.074;2023-04-15T12:05:16;14.60;99.90
20233;DHT22;37438;55.674;13.074;2023-04-15T12:08:21;14.00;99.90
20233;DHT22;37438;55.674;13.074;2023-04-15T12:11:27;14.10;99.90
20233;DHT22;37438;55.674;13.074;2023-04-15T12:14:32;14.00;99.90
20233;DHT22;37438;55.674;13.074;2023-04-15T12:17:38;14.00;99.90
20233;DHT22;37438;55.674;13.074;2023-04-15T12:20:55;13.60;99.90
20233;DHT22;37438;55.674;13.074;2023-04-15T12:24:00;13.50;99.90
20233;DHT22;37438;55.674;13.074;2023-04-15T12:27:06;13.70;99.90
20233;DHT22;37438;55.674;13.074;2023-04-15T12:30:11;13.40;1.00
20233;DHT22;37438;55.674;13.074;2023-04-15T12:33:15;13.40;99.90
20233;DHT22;37438;55.674;13.074;2023-04-15T12:36:21;13.60;99.90
20233;DHT22;37438;55.674;13.074;2023-04-15T12:39:28;13.50;99.90
20233;DHT22;37438;55.674;13.074;2023-04-15T12:42:34;13.50;99.90
20233;DHT22;37438;55.674;13.074;2023-04-15T12:45:38;13.60;99.90
20233;DHT22;37438;55.674;13.074;2023-04-15T12:48:43;13.50;99.90
20233;DHT22;37438;55.674;13.074;2023-04-15T12:51:48;13.20;99.90
20233;DHT22;37438;55.674;13.074;2023-04-15T12:54:52;13.00;99.90
20233;DHT22;37438;55.674;13.074;2023-04-15T12:57:58;13.00;1.00
20233;DHT22;37438;55.674;13.074;2023-04-15T13:01:03;13.10;1.00
20233;DHT22;37438;55.674;13.074;2023-04-15T13:04:07;13.20;1.00
20233;DHT22;37438;55.674;13.074;2023-04-15T13:07:12;13.30;99.90
20233;DHT22;37438;55.674;13.074;2023-04-15T13:10:18;13.30;1.00
20233;DHT22;37438;55.674;13.074;2023-04-15T13:13:22;13.10;1.00
20233;DHT22;37438;55.674;13.074;2023-04-15T13:16:27;12.90;1.00
20233;DHT22;37438;55.674;13.074;2023-04-15T13:19:31;13.00;1.00
20233;DHT22;37438;55.674;13.074;2023-04-15T13:22:36;13.40;99.90
20233;DHT22;37438;55.674;13.074;2023-04-15T13:25:40;13.40;99.90
20233;DHT22;37438;55.674;13.074;2023-04-15T13:28:45;13.40;99.90
20233;DHT22;37438;55.674;13.074;2023-04-15T13:31:49;13.30;99.90
20233;DHT22;37438;55.674;13.074;2023-04-15T13:34:54;13.30;99.90
20233;DHT22;37438;55.674;13.074;2023-04-15T13:37:59;13.20;99.90
20233;DHT22;37438;55.674;13.074;2023-04-15T13:41:04;13.00;99.90
20233;DHT22;37438;55.674;13.074;2023-04-15T13:44:23;13.20;99.90
20233;DHT22;37438;55.674;13.074;2023-04-15T13:47:28;13.20;99.90
20233;DHT22;37438;55.674;13.074;2023-04-15T13:50:34;12.80;99.90
20233;DHT22;37438;55.674;13.074;2023-04-15T13:53:45;12.70;99.90
20233;DHT22;37438;55.674;13.074;2023-04-15T13:56:53;12.80;99.90
20233;DHT22;37438;55.674;13.074;2023-04-15T13:59:59;13.00;99.90
20233;DHT22;37438;55.674;13.074;2023-04-15T14:03:04;12.90;99.90
20233;DHT22;37438;55.674;13.074;2023-04-15T14:06:16;12.70;99.90
20233;DHT22;37438;55.674;13.074;2023-04-15T14:09:21;12.60;99.90
20233;DHT22;37438;55.674;13.074;2023-04-15T14:12:29;12.70;99.90
20233;DHT22;37438;55.674;13.074;2023-04-15T14:15:37;12.70;99.90
20233;DHT22;37438;55.674;13.074;2023-04-15T14:18:53;12.70;99.90
20233;DHT22;37438;55.674;13.074;2023-04-15T14:21:59;12.80;99.90
20233;DHT22;37438;55.674;13.074;2023-04-15T14:25:05;12.70;99.90
20233;DHT22;37438;55.674;13.074;2023-04-15T14:28:11;12.60;99.90
20233;DHT22;37438;55.674;13.074;2023-04-15T14:31:19;12.70;99.90
20233;DHT22;37438;55.674;13.074;2023-04-15T14:34:23;12.60;99.90
20233;DHT22;37438;55.674;13.074;2023-04-15T14:37:28;12.70;99.90
20233;DHT22;37438;55.674;13.074;2023-04-15T14:40:32;12.80;99.90
20233;DHT22;37438;55.674;13.074;2023-04-15T14:43:37;12.70;99.90
20233;DHT22;37438;55.674;13.074;2023-04-15T14:46:46;12.70;99.90
20233;DHT22;37438;55.674;13.074;2023-04-15T14:49:54;12.80;99.90
20233;DHT22;37438;55.674;13.074;2023-04-15T14:52:58;12.70;99.90
20233;DHT22;37438;55.674;13.074;2023-04-15T14:56:02;12.90;99.90
20233;DHT22;37438;55.674;13.074;2023-04-15T14:59:07;12.80;99.90
20233;DHT22;37438;55.674;13.074;2023-04-15T15:02:12;12.80;99.90
20233;DHT22;37438;55.674;13.074;2023-04-15T15:05:31;12.80;99.90
20233;DHT22;37438;55.674;13.074;2023-04-15T15:08:38;12.80;99.90
20233;DHT22;37438;55.674;13.074;2023-04-15T15:11:48;12.60;99.90
20233;DHT22;37438;55.674;13.074;2023-04-15T15:15:05;12.60;99.90
20233;DHT22;37438;55.674;13.074;2023-04-15T15:18:31;12.60;99.90
20233;DHT22;37438;55.674;13.074;2023-04-15T15:21:36;12.80;99.90
20233;DHT22;37438;55.674;13.074;2023-04-15T15:24:41;12.70;99.90
20233;DHT22;37438;55.674;13.074;2023-04-15T15:27:45;12.50;99.90
20233;DHT22;37438;55.674;13.074;2023-04-15T15:30:50;12.70;99.90
20233;DHT22;37438;55.674;13.074;2023-04-15T15:33:59;12.70;99.90
20233;DHT22;37438;55.674;13.074;2023-04-15T15:37:06;12.30;99.90
20233;DHT22;37438;55.674;13.074;2023-04-15T15:40:13;12.30;99.90
20233;DHT22;37438;55.674;13.074;2023-04-15T15:43:22;12.30;99.90
20233;DHT22;37438;55.674;13.074;2023-04-15T15:46:28;12.30;99.90
20233;DHT22;37438;55.674;13.074;2023-04-15T15:49:35;12.10;1.00
20233;DHT22;37438;55.674;13.074;2023-04-15T15:52:39;12.10;1.00
20233;DHT22;37438;55.674;13.074;2023-04-15T15:55:44;11.90;1.00
20233;DHT22;37438;55.674;13.074;2023-04-15T15:58:48;11.90;1.00
20233;DHT22;37438;55.674;13.074;2023-04-15T16:01:52;11.90;1.00
20233;DHT22;37438;55.674;13.074;2023-04-15T16:04:59;11.80;1.00
20233;DHT22;37438;55.674;13.074;2023-04-15T16:08:04;11.80;1.00
20233;DHT22;37438;55.674;13.074;2023-04-15T16:11:09;11.70;1.00
20233;DHT22;37438;55.674;13.074;2023-04-15T16:14:13;11.60;1.00
20233;DHT22;37438;55.674;13.074;2023-04-15T16:17:18;11.60;1.00
20233;DHT22;37438;55.674;13.074;2023-04-15T16:20:23;11.60;10.90
20233;DHT22;37438;55.674;13.074;2023-04-15T16:23:27;11.40;30.80
20233;DHT22;37438;55.674;13.074;2023-04-15T16:26:32;11.40;32.70
20233;DHT22;37438;55.674;13.074;2023-04-15T16:29:36;11.20;29.00
20233;DHT22;37438;55.674;13.074;2023-04-15T16:32:40;11.20;33.10
20233;DHT22;37438;55.674;13.074;2023-04-15T16:35:45;11.20;46.00
20233;DHT22;37438;55.674;13.074;2023-04-15T16:38:49;11.10;63.90
20233;DHT22;37438;55.674;13.074;2023-04-15T16:41:54;11.00;83.10
20233;DHT22;37438;55.674;13.074;2023-04-15T16:44:59;11.00;98.90
20233;DHT22;37438;55.674;13.074;2023-04-15T16:48:03;10.90;99.90
20233;DHT22;37438;55.674;13.074;2023-04-15T16:51:08;10.90;99.90
20233;DHT22;37438;55.674;13.074;2023-04-15T16:54:12;10.80;99.90
20233;DHT22;37438;55.674;13.074;2023-04-15T16:57:16;10.80;99.90
20233;DHT22;37438;55.674;13.074;2023-04-15T17:00:21;10.80;99.90
20233;DHT22;37438;55.674;13.074;2023-04-15T17:03:26;10.80;99.90
20233;DHT22;37438;55.674;13.074;2023-04-15T17:06:30;10.80;99.90
20233;DHT22;37438;55.674;13.074;2023-04-15T17:09:35;10.80;99.90
20233;DHT22;37438;55.674;13.074;2023-04-15T17:12:40;10.80;99.90
20233;DHT22;37438;55.674;13.074;2023-04-15T17:15:45;10.80;99.90
20233;DHT22;37438;55.674;13.074;2023-04-15T17:18:49;10.80;99.90
20233;DHT22;37438;55.674;13.074;2023-04-15T17:21:53;10.80;97.40
20233;DHT22;37438;55.674;13.074;2023-04-15T17:24:58;10.70;99.90
20233;DHT22;37438;55.674;13.074;2023-04-15T17:28:02;10.70;99.90
20233;DHT22;37438;55.674;13.074;2023-04-15T17:31:07;10.60;99.90
20233;DHT22;37438;55.674;13.074;2023-04-15T17:34:11;10.70;99.90
20233;DHT22;37438;55.674;13.074;2023-04-15T17:37:19;10.70;99.90
20233;DHT22;37438;55.674;13.074;2023-04-15T17:40:23;10.60;99.90
20233;DHT22;37438;55.674;13.074;2023-04-15T17:43:27;10.50;99.90
20233;DHT22;37438;55.674;13.074;2023-04-15T17:46:32;10.50;99.90
20233;DHT22;37438;55.674;13.074;2023-04-15T17:49:37;10.50;99.90
20233;DHT22;37438;55.674;13.074;2023-04-15T17:52:42;10.50;99.90
20233;DHT22;37438;55.674;13.074;2023-04-15T17:55:46;10.50;99.90
20233;DHT22;37438;55.674;13.074;2023-04-15T17:58:51;10.40;99.90
20233;DHT22;37438;55.674;13.074;2023-04-15T18:01:57;10.40;99.90
20233;DHT22;37438;55.674;13.074;2023-04-15T18:05:01;10.40;99.90
20233;DHT22;37438;55.674;13.074;2023-04-15T18:08:06;10.40;99.90
20233;DHT22;37438;55.674;13.074;2023-04-15T18:11:10;10.40;99.90
20233;DHT22;37438;55.674;13.074;2023-04-15T18:14:15;10.30;99.90
20233;DHT22;37438;55.674;13.074;2023-04-15T18:17:37;10.30;99.90
20233;DHT22;37438;55.674;13.074;2023-04-15T18:20:41;10.30;99.90
20233;DHT22;37438;55.674;13.074;2023-04-15T18:23:46;10.30;1.00
20233;DHT22;37438;55.674;13.074;2023-04-15T18:26:51;10.30;1.00
20233;DHT22;37438;55.674;13.074;2023-04-15T18:29:55;10.30;1.00
20233;DHT22;37438;55.674;13.074;2023-04-15T18:32:59;10.20;1.00
20233;DHT22;37438;55.674;13.074;2023-04-15T18:36:04;10.20;1.00
20233;DHT22;37438;55.674;13.074;2023-04-15T18:39:08;10.20;1.00
20233;DHT22;37438;55.674;13.074;2023-04-15T18:42:13;10.20;1.00
20233;DHT22;37438;55.674;13.074;2023-04-15T18:45:18;10.20;1.00
20233;DHT22;37438;55.674;13.074;2023-04-15T18:48:24;10.10;1.00
20233;DHT22;37438;55.674;13.074;2023-04-15T18:51:29;10.10;8.20
20233;DHT22;37438;55.674;13.074;2023-04-15T18:54:32;10.10;34.40
20233;DHT22;37438;55.674;13.074;2023-04-15T18:57:37;10.00;58.50
20233;DHT22;37438;55.674;13.074;2023-04-15T19:00:47;10.00;90.10
20233;DHT22;37438;55.674;13.074;2023-04-15T19:03:51;9.90;99.90
20233;DHT22;37438;55.674;13.074;2023-04-15T19:06:55;10.00;99.90
20233;DHT22;37438;55.674;13.074;2023-04-15T19:10:03;10.00;99.90
20233;DHT22;37438;55.674;13.074;2023-04-15T19:13:07;9.90;99.90
20233;DHT22;37438;55.674;13.074;2023-04-15T19:16:11;9.90;99.90
20233;DHT22;37438;55.674;13.074;2023-04-15T19:19:16;9.90;99.90
20233;DHT22;37438;55.674;13.074;2023-04-15T19:22:20;9.90;99.90
20233;DHT22;37438;55.674;13.074;2023-04-15T19:25:24;9.90;99.90
20233;DHT22;37438;55.674;13.074;2023-04-15T19:28:29;9.80;99.90